sensor_id;sensor_type;location;lat;lon;timestamp;P1;durP1;ratioP1;P2;durP2;ratioP2
68089;SDS011;54880;50.986;6.990;2023-05-21T00:00:23;17.70;;;9.27;;
68089;SDS011;54880;50.986;6.990;2023-05-21T00:02:48;18.97;;;10.03;;
68089;SDS011;54880;50.986;6.990;2023-05-21T00:05:13;19.00;;;10.97;;
68089;SDS011;54880;50.986;6.990;2023-05-21T00:07:40;19.55;;;10.25;;
68089;SDS011;54880;50.986;6.990;2023-05-21T00:10:06;21.90;;;9.77;;
68089;SDS011;54880;50.986;6.990;2023-05-21T00:12:31;20.70;;;10.60;;
68089;SDS011;54880;50.986;6.990;2023-05-21T00:14:57;18.27;;;10.03;;
68089;SDS011;54880;50.986;6.990;2023-05-21T00:17:22;18.05;;;9.57;;
68089;SDS011;54880;50.986;6.990;2023-05-21T00:19:48;16.97;;;9.27;;
68089;SDS011;54880;50.986;6.990;2023-05-21T00:22:14;21.17;;;10.13;;
68089;SDS011;54880;50.986;6.990;2023-05-21T00:24:40;19.23;;;9.98;;
68089;SDS011;54880;50.986;6.990;2023-05-21T00:27:05;17.80;;;9.90;;
68089;SDS011;54880;50.986;6.990;2023-05-21T00:29:30;19.00;;;9.93;;
68089;SDS011;54880;50.986;6.990;2023-05-21T00:31:56;17.93;;;10.47;;
68089;SDS011;54880;50.986;6.990;2023-05-21T00:34:21;19.57;;;9.97;;
68089;SDS011;54880;50.986;6.990;2023-05-21T00:36:47;18.40;;;10.15;;
68089;SDS011;54880;50.986;6.990;2023-05-21T00:39:12;18.57;;;10.40;;
68089;SDS011;54880;50.986;6.990;2023-05-21T00:41:37;17.13;;;9.97;;
68089;SDS011;54880;50.986;6.990;2023-05-21T00:44:04;18.75;;;9.98;;
68089;SDS011;54880;50.986;6.990;2023-05-21T00:46:30;18.73;;;10.73;;
68089;SDS011;54880;50.986;6.990;2023-05-21T00:48:55;18.50;;;10.23;;
68089;SDS011;54880;50.986;6.990;2023-05-21T00:51:22;18.13;;;10.95;;
68089;SDS011;54880;50.986;6.990;2023-05-21T00:53:51;20.55;;;10.43;;
68089;SDS011;54880;50.986;6.990;2023-05-21T00:56:20;21.10;;;10.40;;
68089;SDS011;54880;50.986;6.990;2023-05-21T00:58:46;18.65;;;9.50;;
68089;SDS011;54880;50.986;6.990;2023-05-21T01:01:12;18.97;;;10.10;;
68089;SDS011;54880;50.986;6.990;2023-05-21T01:03:37;19.30;;;10.40;;
68089;SDS011;54880;50.986;6.990;2023-05-21T01:06:03;17.93;;;10.07;;
68089;SDS011;54880;50.986;6.990;2023-05-21T01:08:29;19.48;;;10.50;;
68089;SDS011;54880;50.986;6.990;2023-05-21T01:10:54;17.50;;;9.70;;
68089;SDS011;54880;50.986;6.990;2023-05-21T01:13:20;17.80;;;9.80;;
68089;SDS011;54880;50.986;6.990;2023-05-21T01:15:47;18.63;;;10.20;;
68089;SDS011;54880;50.986;6.990;2023-05-21T01:18:13;23.88;;;10.13;;
68089;SDS011;54880;50.986;6.990;2023-05-21T01:20:40;17.05;;;9.82;;
68089;SDS011;54880;50.986;6.990;2023-05-21T01:23:06;19.45;;;10.50;;
68089;SDS011;54880;50.986;6.990;2023-05-21T01:25:33;18.23;;;10.67;;
68089;SDS011;54880;50.986;6.990;2023-05-21T01:27:58;19.25;;;10.45;;
68089;SDS011;54880;50.986;6.990;2023-05-21T01:30:24;18.50;;;9.90;;
68089;SDS011;54880;50.986;6.990;2023-05-21T01:33:11;19.23;;;9.83;;
68089;SDS011;54880;50.986;6.990;2023-05-21T01:35:41;17.25;;;9.73;;
68089;SDS011;54880;50.986;6.990;2023-05-21T01:38:11;16.85;;;9.57;;
68089;SDS011;54880;50.986;6.990;2023-05-21T01:40:39;19.13;;;9.87;;
68089;SDS011;54880;50.986;6.990;2023-05-21T01:43:06;18.15;;;9.55;;
68089;SDS011;54880;50.986;6.990;2023-05-21T01:45:31;17.83;;;10.23;;
68089;SDS011;54880;50.986;6.990;2023-05-21T01:47:57;18.30;;;10.23;;
68089;SDS011;54880;50.986;6.990;2023-05-21T01:50:23;18.60;;;10.05;;
68089;SDS011;54880;50.986;6.990;2023-05-21T01:52:52;16.73;;;9.70;;
68089;SDS011;54880;50.986;6.990;2023-05-21T01:55:18;17.90;;;9.65;;
68089;SDS011;54880;50.986;6.990;2023-05-21T01:57:49;17.65;;;9.35;;
68089;SDS011;54880;50.986;6.990;2023-05-21T02:00:15;17.50;;;8.93;;
68089;SDS011;54880;50.986;6.990;2023-05-21T02:02:40;18.63;;;9.20;;
68089;SDS011;54880;50.986;6.990;2023-05-21T02:05:06;18.23;;;9.50;;
68089;SDS011;54880;50.986;6.990;2023-05-21T02:07:32;15.90;;;8.55;;
68089;SDS011;54880;50.986;6.990;2023-05-21T02:09:59;14.82;;;8.68;;
68089;SDS011;54880;50.986;6.990;2023-05-21T02:12:25;17.97;;;9.37;;
68089;SDS011;54880;50.986;6.990;2023-05-21T02:14:52;15.60;;;9.15;;
68089;SDS011;54880;50.986;6.990;2023-05-21T02:17:17;16.57;;;9.40;;
68089;SDS011;54880;50.986;6.990;2023-05-21T02:19:42;17.13;;;8.57;;
68089;SDS011;54880;50.986;6.990;2023-05-21T02:22:11;17.95;;;8.85;;
68089;SDS011;54880;50.986;6.990;2023-05-21T02:24:36;17.10;;;8.83;;
68089;SDS011;54880;50.986;6.990;2023-05-21T02:27:01;18.23;;;9.00;;
68089;SDS011;54880;50.986;6.990;2023-05-21T02:29:27;18.83;;;8.80;;
68089;SDS011;54880;50.986;6.990;2023-05-21T02:31:52;16.90;;;8.77;;
68089;SDS011;54880;50.986;6.990;2023-05-21T02:34:17;16.50;;;9.07;;
68089;SDS011;54880;50.986;6.990;2023-05-21T02:36:44;15.52;;;8.48;;
68089;SDS011;54880;50.986;6.990;2023-05-21T02:39:12;16.42;;;8.63;;
68089;SDS011;54880;50.986;6.990;2023-05-21T02:41:38;16.33;;;8.53;;
68089;SDS011;54880;50.986;6.990;2023-05-21T02:44:03;15.85;;;8.23;;
68089;SDS011;54880;50.986;6.990;2023-05-21T02:46:29;15.18;;;8.10;;
68089;SDS011;54880;50.986;6.990;2023-05-21T02:48:54;16.37;;;8.10;;
68089;SDS011;54880;50.986;6.990;2023-05-21T02:51:19;15.07;;;9.00;;
68089;SDS011;54880;50.986;6.990;2023-05-21T02:53:48;15.35;;;8.23;;
68089;SDS011;54880;50.986;6.990;2023-05-21T02:56:14;15.90;;;8.33;;
68089;SDS011;54880;50.986;6.990;2023-05-21T02:58:39;14.37;;;8.20;;
68089;SDS011;54880;50.986;6.990;2023-05-21T03:01:05;16.20;;;7.88;;
68089;SDS011;54880;50.986;6.990;2023-05-21T03:03:31;16.60;;;8.30;;
68089;SDS011;54880;50.986;6.990;2023-05-21T03:05:57;15.23;;;8.52;;
68089;SDS011;54880;50.986;6.990;2023-05-21T03:08:22;16.52;;;8.50;;
68089;SDS011;54880;50.986;6.990;2023-05-21T03:10:48;14.25;;;8.65;;
68089;SDS011;54880;50.986;6.990;2023-05-21T03:13:14;18.40;;;9.13;;
68089;SDS011;54880;50.986;6.990;2023-05-21T03:15:39;15.53;;;8.67;;
68089;SDS011;54880;50.986;6.990;2023-05-21T03:18:04;16.17;;;8.30;;
68089;SDS011;54880;50.986;6.990;2023-05-21T03:20:30;15.63;;;8.23;;
68089;SDS011;54880;50.986;6.990;2023-05-21T03:22:56;15.40;;;8.48;;
68089;SDS011;54880;50.986;6.990;2023-05-21T03:25:21;15.90;;;9.20;;
68089;SDS011;54880;50.986;6.990;2023-05-21T03:27:49;15.57;;;8.38;;
68089;SDS011;54880;50.986;6.990;2023-05-21T03:30:39;16.27;;;8.88;;
68089;SDS011;54880;50.986;6.990;2023-05-21T03:33:28;16.30;;;8.67;;
68089;SDS011;54880;50.986;6.990;2023-05-21T03:35:53;15.27;;;8.90;;
68089;SDS011;54880;50.986;6.990;2023-05-21T03:38:19;15.25;;;9.10;;
68089;SDS011;54880;50.986;6.990;2023-05-21T03:40:44;18.30;;;9.47;;
68089;SDS011;54880;50.986;6.990;2023-05-21T03:43:10;15.68;;;8.77;;
68089;SDS011;54880;50.986;6.990;2023-05-21T03:45:36;18.53;;;8.30;;
68089;SDS011;54880;50.986;6.990;2023-05-21T03:48:27;16.35;;;9.07;;
68089;SDS011;54880;50.986;6.990;2023-05-21T03:50:53;16.15;;;8.40;;
68089;SDS011;54880;50.986;6.990;2023-05-21T03:53:18;18.10;;;9.00;;
68089;SDS011;54880;50.986;6.990;2023-05-21T03:55:43;16.43;;;8.90;;
68089;SDS011;54880;50.986;6.990;2023-05-21T03:58:09;17.33;;;9.43;;
68089;SDS011;54880;50.986;6.990;2023-05-21T04:00:35;14.75;;;8.18;;
68089;SDS011;54880;50.986;6.990;2023-05-21T04:03:02;15.40;;;8.67;;
68089;SDS011;54880;50.986;6.990;2023-05-21T04:05:27;15.52;;;8.43;;
68089;SDS011;54880;50.986;6.990;2023-05-21T04:07:54;17.35;;;8.95;;
68089;SDS011;54880;50.986;6.990;2023-05-21T04:10:19;16.43;;;8.53;;
68089;SDS011;54880;50.986;6.990;2023-05-21T04:12:47;15.48;;;8.45;;
68089;SDS011;54880;50.986;6.990;2023-05-21T04:15:16;15.67;;;8.60;;
68089;SDS011;54880;50.986;6.990;2023-05-21T04:17:43;16.25;;;8.40;;
68089;SDS011;54880;50.986;6.990;2023-05-21T04:20:09;19.05;;;9.32;;
68089;SDS011;54880;50.986;6.990;2023-05-21T04:22:36;14.88;;;8.23;;
68089;SDS011;54880;50.986;6.990;2023-05-21T04:25:01;16.83;;;8.70;;
68089;SDS011;54880;50.986;6.990;2023-05-21T04:27:31;18.02;;;9.30;;
68089;SDS011;54880;50.986;6.990;2023-05-21T04:29:58;15.43;;;9.47;;
68089;SDS011;54880;50.986;6.990;2023-05-21T04:32:23;16.73;;;9.23;;
68089;SDS011;54880;50.986;6.990;2023-05-21T04:34:49;16.00;;;8.77;;
68089;SDS011;54880;50.986;6.990;2023-05-21T04:37:14;18.70;;;8.33;;
68089;SDS011;54880;50.986;6.990;2023-05-21T04:39:41;15.13;;;9.13;;
68089;SDS011;54880;50.986;6.990;2023-05-21T04:42:07;15.40;;;8.45;;
68089;SDS011;54880;50.986;6.990;2023-05-21T04:44:35;16.57;;;8.40;;
68089;SDS011;54880;50.986;6.990;2023-05-21T04:47:02;16.48;;;8.68;;
68089;SDS011;54880;50.986;6.990;2023-05-21T04:49:27;14.70;;;8.83;;
68089;SDS011;54880;50.986;6.990;2023-05-21T04:51:52;15.57;;;8.47;;
68089;SDS011;54880;50.986;6.990;2023-05-21T04:54:18;14.80;;;8.35;;
68089;SDS011;54880;50.986;6.990;2023-05-21T04:56:44;14.93;;;8.60;;
68089;SDS011;54880;50.986;6.990;2023-05-21T04:59:09;15.53;;;8.23;;
68089;SDS011;54880;50.986;6.990;2023-05-21T05:01:34;15.40;;;7.70;;
68089;SDS011;54880;50.986;6.990;2023-05-21T05:04:02;14.88;;;7.10;;
68089;SDS011;54880;50.986;6.990;2023-05-21T05:06:28;14.70;;;8.23;;
68089;SDS011;54880;50.986;6.990;2023-05-21T05:08:54;13.73;;;7.60;;
68089;SDS011;54880;50.986;6.990;2023-05-21T05:11:20;15.73;;;7.90;;
68089;SDS011;54880;50.986;6.990;2023-05-21T05:13:45;14.67;;;8.03;;
68089;SDS011;54880;50.986;6.990;2023-05-21T05:16:10;13.03;;;7.80;;
68089;SDS011;54880;50.986;6.990;2023-05-21T05:18:37;15.43;;;8.50;;
68089;SDS011;54880;50.986;6.990;2023-05-21T05:21:02;17.02;;;7.95;;
68089;SDS011;54880;50.986;6.990;2023-05-21T05:23:27;13.40;;;7.80;;
68089;SDS011;54880;50.986;6.990;2023-05-21T05:25:53;15.17;;;8.07;;
68089;SDS011;54880;50.986;6.990;2023-05-21T05:28:18;14.43;;;8.00;;
68089;SDS011;54880;50.986;6.990;2023-05-21T05:30:43;13.87;;;8.23;;
68089;SDS011;54880;50.986;6.990;2023-05-21T05:33:19;15.65;;;8.25;;
68089;SDS011;54880;50.986;6.990;2023-05-21T05:35:45;18.20;;;8.53;;
68089;SDS011;54880;50.986;6.990;2023-05-21T05:38:10;13.00;;;7.80;;
68089;SDS011;54880;50.986;6.990;2023-05-21T05:40:36;15.68;;;8.63;;
68089;SDS011;54880;50.986;6.990;2023-05-21T05:43:01;13.93;;;8.07;;
68089;SDS011;54880;50.986;6.990;2023-05-21T05:45:26;16.10;;;8.30;;
68089;SDS011;54880;50.986;6.990;2023-05-21T05:47:52;15.90;;;8.10;;
68089;SDS011;54880;50.986;6.990;2023-05-21T05:50:17;14.30;;;7.70;;
68089;SDS011;54880;50.986;6.990;2023-05-21T05:52:42;12.03;;;7.50;;
68089;SDS011;54880;50.986;6.990;2023-05-21T05:55:08;12.40;;;7.67;;
68089;SDS011;54880;50.986;6.990;2023-05-21T05:57:33;15.63;;;8.35;;
68089;SDS011;54880;50.986;6.990;2023-05-21T06:00:05;13.65;;;8.30;;
68089;SDS011;54880;50.986;6.990;2023-05-21T06:02:37;15.23;;;8.10;;
68089;SDS011;54880;50.986;6.990;2023-05-21T06:05:02;15.02;;;8.98;;
68089;SDS011;54880;50.986;6.990;2023-05-21T06:07:28;16.23;;;9.00;;
68089;SDS011;54880;50.986;6.990;2023-05-21T06:09:53;15.90;;;9.33;;
68089;SDS011;54880;50.986;6.990;2023-05-21T06:12:19;19.13;;;9.93;;
68089;SDS011;54880;50.986;6.990;2023-05-21T06:14:44;15.60;;;8.93;;
68089;SDS011;54880;50.986;6.990;2023-05-21T06:17:10;17.40;;;9.13;;
68089;SDS011;54880;50.986;6.990;2023-05-21T06:19:36;17.27;;;9.50;;
68089;SDS011;54880;50.986;6.990;2023-05-21T06:22:01;16.83;;;9.47;;
68089;SDS011;54880;50.986;6.990;2023-05-21T06:24:26;18.77;;;9.70;;
68089;SDS011;54880;50.986;6.990;2023-05-21T06:26:52;14.93;;;9.20;;
68089;SDS011;54880;50.986;6.990;2023-05-21T06:29:17;16.92;;;9.05;;
68089;SDS011;54880;50.986;6.990;2023-05-21T06:31:44;14.97;;;8.93;;
68089;SDS011;54880;50.986;6.990;2023-05-21T06:34:10;16.33;;;9.38;;
68089;SDS011;54880;50.986;6.990;2023-05-21T06:36:36;17.03;;;9.07;;
68089;SDS011;54880;50.986;6.990;2023-05-21T06:39:01;13.87;;;8.23;;
68089;SDS011;54880;50.986;6.990;2023-05-21T06:41:27;15.77;;;9.60;;
68089;SDS011;54880;50.986;6.990;2023-05-21T06:43:56;16.00;;;9.82;;
68089;SDS011;54880;50.986;6.990;2023-05-21T06:46:36;19.53;;;9.13;;
68089;SDS011;54880;50.986;6.990;2023-05-21T06:49:05;17.27;;;9.07;;
68089;SDS011;54880;50.986;6.990;2023-05-21T06:51:31;18.17;;;9.93;;
68089;SDS011;54880;50.986;6.990;2023-05-21T06:53:56;17.13;;;10.10;;
68089;SDS011;54880;50.986;6.990;2023-05-21T06:56:22;16.00;;;9.17;;
68089;SDS011;54880;50.986;6.990;2023-05-21T06:58:47;14.83;;;8.90;;
68089;SDS011;54880;50.986;6.990;2023-05-21T07:01:14;18.23;;;10.15;;
68089;SDS011;54880;50.986;6.990;2023-05-21T07:03:40;15.95;;;9.90;;
68089;SDS011;54880;50.986;6.990;2023-05-21T07:06:06;17.73;;;10.52;;
68089;SDS011;54880;50.986;6.990;2023-05-21T07:08:32;17.07;;;9.13;;
68089;SDS011;54880;50.986;6.990;2023-05-21T07:10:58;17.67;;;9.40;;
68089;SDS011;54880;50.986;6.990;2023-05-21T07:13:24;16.95;;;9.50;;
68089;SDS011;54880;50.986;6.990;2023-05-21T07:15:49;15.83;;;9.30;;
68089;SDS011;54880;50.986;6.990;2023-05-21T07:18:15;15.38;;;8.55;;
68089;SDS011;54880;50.986;6.990;2023-05-21T07:20:41;15.17;;;9.00;;
68089;SDS011;54880;50.986;6.990;2023-05-21T07:23:09;17.42;;;9.75;;
68089;SDS011;54880;50.986;6.990;2023-05-21T07:25:35;16.60;;;8.97;;
68089;SDS011;54880;50.986;6.990;2023-05-21T07:28:01;15.35;;;9.10;;
68089;SDS011;54880;50.986;6.990;2023-05-21T07:30:26;17.70;;;9.50;;
68089;SDS011;54880;50.986;6.990;2023-05-21T07:32:52;18.80;;;9.48;;
68089;SDS011;54880;50.986;6.990;2023-05-21T07:35:18;15.57;;;9.50;;
68089;SDS011;54880;50.986;6.990;2023-05-21T07:37:44;15.23;;;9.43;;
68089;SDS011;54880;50.986;6.990;2023-05-21T07:40:10;18.25;;;10.63;;
68089;SDS011;54880;50.986;6.990;2023-05-21T07:42:36;17.70;;;10.65;;
68089;SDS011;54880;50.986;6.990;2023-05-21T07:45:02;18.00;;;11.20;;
68089;SDS011;54880;50.986;6.990;2023-05-21T07:47:30;20.17;;;11.25;;
68089;SDS011;54880;50.986;6.990;2023-05-21T07:49:56;18.42;;;11.88;;
68089;SDS011;54880;50.986;6.990;2023-05-21T07:52:23;18.98;;;11.73;;
68089;SDS011;54880;50.986;6.990;2023-05-21T07:54:48;22.67;;;12.53;;
68089;SDS011;54880;50.986;6.990;2023-05-21T07:57:14;19.95;;;12.13;;
68089;SDS011;54880;50.986;6.990;2023-05-21T07:59:49;18.23;;;11.20;;
68089;SDS011;54880;50.986;6.990;2023-05-21T08:02:15;19.27;;;10.57;;
68089;SDS011;54880;50.986;6.990;2023-05-21T08:04:40;19.37;;;11.67;;
68089;SDS011;54880;50.986;6.990;2023-05-21T08:07:07;20.50;;;12.45;;
68089;SDS011;54880;50.986;6.990;2023-05-21T08:09:33;23.52;;;13.95;;
68089;SDS011;54880;50.986;6.990;2023-05-21T08:11:59;19.23;;;11.87;;
68089;SDS011;54880;50.986;6.990;2023-05-21T08:14:24;18.83;;;12.00;;
68089;SDS011;54880;50.986;6.990;2023-05-21T08:16:49;19.77;;;11.97;;
68089;SDS011;54880;50.986;6.990;2023-05-21T08:19:14;17.87;;;10.97;;
68089;SDS011;54880;50.986;6.990;2023-05-21T08:21:40;16.75;;;10.82;;
68089;SDS011;54880;50.986;6.990;2023-05-21T08:24:06;17.83;;;10.70;;
68089;SDS011;54880;50.986;6.990;2023-05-21T08:26:31;17.43;;;11.07;;
68089;SDS011;54880;50.986;6.990;2023-05-21T08:28:56;21.17;;;11.70;;
68089;SDS011;54880;50.986;6.990;2023-05-21T08:31:22;20.73;;;12.63;;
68089;SDS011;54880;50.986;6.990;2023-05-21T08:33:49;21.00;;;11.88;;
68089;SDS011;54880;50.986;6.990;2023-05-21T08:36:16;20.90;;;11.25;;
68089;SDS011;54880;50.986;6.990;2023-05-21T08:38:53;22.65;;;11.80;;
68089;SDS011;54880;50.986;6.990;2023-05-21T08:41:30;20.30;;;11.40;;
68089;SDS011;54880;50.986;6.990;2023-05-21T08:43:55;19.43;;;10.60;;
68089;SDS011;54880;50.986;6.990;2023-05-21T08:46:25;17.42;;;9.52;;
68089;SDS011;54880;50.986;6.990;2023-05-21T08:48:53;18.15;;;9.70;;
68089;SDS011;54880;50.986;6.990;2023-05-21T08:51:20;18.20;;;10.23;;
68089;SDS011;54880;50.986;6.990;2023-05-21T08:53:49;19.40;;;11.05;;
68089;SDS011;54880;50.986;6.990;2023-05-21T08:56:16;20.42;;;11.98;;
68089;SDS011;54880;50.986;6.990;2023-05-21T08:58:52;17.13;;;10.40;;
68089;SDS011;54880;50.986;6.990;2023-05-21T09:01:20;18.02;;;10.15;;
68089;SDS011;54880;50.986;6.990;2023-05-21T09:03:51;15.80;;;10.13;;
68089;SDS011;54880;50.986;6.990;2023-05-21T09:06:19;18.38;;;11.20;;
68089;SDS011;54880;50.986;6.990;2023-05-21T09:08:46;17.83;;;10.20;;
68089;SDS011;54880;50.986;6.990;2023-05-21T09:11:19;18.38;;;10.13;;
68089;SDS011;54880;50.986;6.990;2023-05-21T09:13:52;17.20;;;10.48;;
68089;SDS011;54880;50.986;6.990;2023-05-21T09:16:24;19.50;;;10.80;;
68089;SDS011;54880;50.986;6.990;2023-05-21T09:18:49;17.83;;;9.77;;
68089;SDS011;54880;50.986;6.990;2023-05-21T09:21:28;19.23;;;11.07;;
68089;SDS011;54880;50.986;6.990;2023-05-21T09:23:59;16.67;;;10.20;;
68089;SDS011;54880;50.986;6.990;2023-05-21T09:26:26;17.55;;;9.90;;
68089;SDS011;54880;50.986;6.990;2023-05-21T09:28:55;18.10;;;10.40;;
68089;SDS011;54880;50.986;6.990;2023-05-21T09:31:24;15.77;;;10.05;;
68089;SDS011;54880;50.986;6.990;2023-05-21T09:33:50;18.75;;;10.40;;
68089;SDS011;54880;50.986;6.990;2023-05-21T09:36:18;16.03;;;10.00;;
68089;SDS011;54880;50.986;6.990;2023-05-21T09:38:47;19.27;;;10.77;;
68089;SDS011;54880;50.986;6.990;2023-05-21T09:41:12;16.83;;;10.27;;
68089;SDS011;54880;50.986;6.990;2023-05-21T09:43:40;18.53;;;10.83;;
68089;SDS011;54880;50.986;6.990;2023-05-21T09:46:06;20.63;;;11.18;;
68089;SDS011;54880;50.986;6.990;2023-05-21T09:51:06;17.13;;;11.17;;
68089;SDS011;54880;50.986;6.990;2023-05-21T09:53:31;17.90;;;11.38;;
68089;SDS011;54880;50.986;6.990;2023-05-21T09:55:56;16.80;;;10.50;;
68089;SDS011;54880;50.986;6.990;2023-05-21T09:58:22;18.17;;;11.07;;
68089;SDS011;54880;50.986;6.990;2023-05-21T10:00:47;20.83;;;11.63;;
68089;SDS011;54880;50.986;6.990;2023-05-21T10:03:12;17.30;;;11.53;;
68089;SDS011;54880;50.986;6.990;2023-05-21T10:05:40;16.67;;;10.43;;
68089;SDS011;54880;50.986;6.990;2023-05-21T10:08:06;18.63;;;9.87;;
68089;SDS011;54880;50.986;6.990;2023-05-21T10:10:33;18.13;;;10.85;;
68089;SDS011;54880;50.986;6.990;2023-05-21T10:13:02;17.17;;;10.75;;
68089;SDS011;54880;50.986;6.990;2023-05-21T10:15:29;16.33;;;10.55;;
68089;SDS011;54880;50.986;6.990;2023-05-21T10:17:55;17.73;;;10.20;;
68089;SDS011;54880;50.986;6.990;2023-05-21T10:20:21;16.77;;;10.80;;
68089;SDS011;54880;50.986;6.990;2023-05-21T10:22:46;17.10;;;11.97;;
68089;SDS011;54880;50.986;6.990;2023-05-21T10:25:12;18.00;;;10.98;;
68089;SDS011;54880;50.986;6.990;2023-05-21T10:27:38;19.90;;;11.97;;
68089;SDS011;54880;50.986;6.990;2023-05-21T10:30:04;19.90;;;11.53;;
68089;SDS011;54880;50.986;6.990;2023-05-21T10:32:30;18.40;;;11.23;;
68089;SDS011;54880;50.986;6.990;2023-05-21T10:34:56;18.48;;;12.02;;
68089;SDS011;54880;50.986;6.990;2023-05-21T10:37:22;18.73;;;11.10;;
68089;SDS011;54880;50.986;6.990;2023-05-21T10:39:48;16.77;;;10.50;;
68089;SDS011;54880;50.986;6.990;2023-05-21T10:42:25;16.85;;;10.52;;
68089;SDS011;54880;50.986;6.990;2023-05-21T10:50:02;16.35;;;11.00;;
68089;SDS011;54880;50.986;6.990;2023-05-21T10:55:30;16.15;;;10.43;;
68089;SDS011;54880;50.986;6.990;2023-05-21T11:00:23;16.03;;;10.73;;
68089;SDS011;54880;50.986;6.990;2023-05-21T11:02:49;17.58;;;10.90;;
68089;SDS011;54880;50.986;6.990;2023-05-21T11:05:16;16.88;;;10.52;;
68089;SDS011;54880;50.986;6.990;2023-05-21T11:07:58;14.88;;;10.23;;
68089;SDS011;54880;50.986;6.990;2023-05-21T11:10:36;16.20;;;10.55;;
68089;SDS011;54880;50.986;6.990;2023-05-21T11:13:14;17.60;;;10.63;;
68089;SDS011;54880;50.986;6.990;2023-05-21T11:18:21;17.02;;;10.20;;
68089;SDS011;54880;50.986;6.990;2023-05-21T11:20:49;17.53;;;10.93;;
68089;SDS011;54880;50.986;6.990;2023-05-21T11:23:15;17.42;;;9.73;;
68089;SDS011;54880;50.986;6.990;2023-05-21T11:25:40;14.87;;;9.77;;
68089;SDS011;54880;50.986;6.990;2023-05-21T11:28:06;16.27;;;9.90;;
68089;SDS011;54880;50.986;6.990;2023-05-21T11:30:33;17.15;;;10.40;;
68089;SDS011;54880;50.986;6.990;2023-05-21T11:35:38;16.30;;;10.50;;
68089;SDS011;54880;50.986;6.990;2023-05-21T11:38:19;15.80;;;10.30;;
68089;SDS011;54880;50.986;6.990;2023-05-21T11:40:51;16.80;;;11.07;;
68089;SDS011;54880;50.986;6.990;2023-05-21T11:43:18;15.18;;;10.55;;
68089;SDS011;54880;50.986;6.990;2023-05-21T11:45:44;16.00;;;10.50;;
68089;SDS011;54880;50.986;6.990;2023-05-21T11:48:13;15.90;;;11.13;;
68089;SDS011;54880;50.986;6.990;2023-05-21T11:50:39;17.42;;;9.55;;
68089;SDS011;54880;50.986;6.990;2023-05-21T11:53:06;15.70;;;10.50;;
68089;SDS011;54880;50.986;6.990;2023-05-21T11:55:33;15.65;;;10.13;;
68089;SDS011;54880;50.986;6.990;2023-05-21T11:58:02;16.75;;;9.98;;
68089;SDS011;54880;50.986;6.990;2023-05-21T12:00:28;16.20;;;9.13;;
68089;SDS011;54880;50.986;6.990;2023-05-21T12:02:53;15.67;;;10.30;;
68089;SDS011;54880;50.986;6.990;2023-05-21T12:05:20;15.70;;;9.73;;
68089;SDS011;54880;50.986;6.990;2023-05-21T12:07:46;14.93;;;9.20;;
68089;SDS011;54880;50.986;6.990;2023-05-21T12:10:15;16.27;;;10.63;;
68089;SDS011;54880;50.986;6.990;2023-05-21T12:12:40;14.97;;;9.97;;
68089;SDS011;54880;50.986;6.990;2023-05-21T12:15:06;18.35;;;11.40;;
68089;SDS011;54880;50.986;6.990;2023-05-21T12:17:31;15.88;;;10.63;;
68089;SDS011;54880;50.986;6.990;2023-05-21T12:19:57;16.40;;;10.17;;
68089;SDS011;54880;50.986;6.990;2023-05-21T12:22:23;15.63;;;9.82;;
68089;SDS011;54880;50.986;6.990;2023-05-21T12:24:48;16.93;;;10.77;;
68089;SDS011;54880;50.986;6.990;2023-05-21T12:27:14;15.15;;;9.93;;
68089;SDS011;54880;50.986;6.990;2023-05-21T12:29:48;16.08;;;9.55;;
68089;SDS011;54880;50.986;6.990;2023-05-21T12:32:15;13.20;;;9.68;;
68089;SDS011;54880;50.986;6.990;2023-05-21T12:37:07;13.98;;;9.70;;
68089;SDS011;54880;50.986;6.990;2023-05-21T12:39:36;16.35;;;10.05;;
68089;SDS011;54880;50.986;6.990;2023-05-21T12:42:01;14.97;;;9.50;;
68089;SDS011;54880;50.986;6.990;2023-05-21T12:44:30;15.07;;;9.82;;
68089;SDS011;54880;50.986;6.990;2023-05-21T12:46:56;16.50;;;10.15;;
68089;SDS011;54880;50.986;6.990;2023-05-21T12:51:56;15.20;;;10.13;;
68089;SDS011;54880;50.986;6.990;2023-05-21T12:54:27;14.90;;;10.40;;
68089;SDS011;54880;50.986;6.990;2023-05-21T12:56:52;15.37;;;10.00;;
68089;SDS011;54880;50.986;6.990;2023-05-21T12:59:17;16.23;;;10.47;;
68089;SDS011;54880;50.986;6.990;2023-05-21T13:01:46;14.77;;;10.23;;
68089;SDS011;54880;50.986;6.990;2023-05-21T13:04:11;15.75;;;10.60;;
68089;SDS011;54880;50.986;6.990;2023-05-21T13:06:42;16.83;;;10.40;;
68089;SDS011;54880;50.986;6.990;2023-05-21T13:09:08;14.85;;;10.35;;
68089;SDS011;54880;50.986;6.990;2023-05-21T13:11:33;15.60;;;10.47;;
68089;SDS011;54880;50.986;6.990;2023-05-21T13:13:58;15.37;;;10.23;;
68089;SDS011;54880;50.986;6.990;2023-05-21T13:16:23;15.93;;;10.57;;
68089;SDS011;54880;50.986;6.990;2023-05-21T13:18:49;15.10;;;10.07;;
68089;SDS011;54880;50.986;6.990;2023-05-21T13:21:14;15.47;;;10.37;;
68089;SDS011;54880;50.986;6.990;2023-05-21T13:23:39;14.67;;;10.43;;
68089;SDS011;54880;50.986;6.990;2023-05-21T13:26:05;16.30;;;10.23;;
68089;SDS011;54880;50.986;6.990;2023-05-21T13:28:30;17.30;;;10.10;;
68089;SDS011;54880;50.986;6.990;2023-05-21T13:30:55;14.63;;;10.00;;
68089;SDS011;54880;50.986;6.990;2023-05-21T13:33:20;12.85;;;9.70;;
68089;SDS011;54880;50.986;6.990;2023-05-21T13:35:46;14.17;;;9.20;;
68089;SDS011;54880;50.986;6.990;2023-05-21T13:38:15;15.43;;;10.30;;
68089;SDS011;54880;50.986;6.990;2023-05-21T13:40:40;16.23;;;10.00;;
68089;SDS011;54880;50.986;6.990;2023-05-21T13:43:05;16.10;;;10.95;;
68089;SDS011;54880;50.986;6.990;2023-05-21T13:45:30;14.43;;;9.45;;
68089;SDS011;54880;50.986;6.990;2023-05-21T13:47:56;12.80;;;9.50;;
68089;SDS011;54880;50.986;6.990;2023-05-21T13:50:22;14.77;;;10.00;;
68089;SDS011;54880;50.986;6.990;2023-05-21T13:52:47;14.47;;;9.97;;
68089;SDS011;54880;50.986;6.990;2023-05-21T13:55:12;14.43;;;9.67;;
68089;SDS011;54880;50.986;6.990;2023-05-21T13:57:39;17.80;;;10.43;;
68089;SDS011;54880;50.986;6.990;2023-05-21T14:00:05;15.23;;;9.77;;
68089;SDS011;54880;50.986;6.990;2023-05-21T14:02:33;14.05;;;9.63;;
68089;SDS011;54880;50.986;6.990;2023-05-21T14:04:58;14.30;;;9.17;;
68089;SDS011;54880;50.986;6.990;2023-05-21T14:07:23;16.13;;;9.60;;
68089;SDS011;54880;50.986;6.990;2023-05-21T14:09:49;14.47;;;9.80;;
68089;SDS011;54880;50.986;6.990;2023-05-21T14:12:14;14.98;;;9.82;;
68089;SDS011;54880;50.986;6.990;2023-05-21T14:14:39;13.60;;;8.80;;
68089;SDS011;54880;50.986;6.990;2023-05-21T14:17:05;13.03;;;9.57;;
68089;SDS011;54880;50.986;6.990;2023-05-21T14:19:31;13.07;;;9.45;;
68089;SDS011;54880;50.986;6.990;2023-05-21T14:21:56;15.00;;;9.20;;
68089;SDS011;54880;50.986;6.990;2023-05-21T14:24:21;16.33;;;10.20;;
68089;SDS011;54880;50.986;6.990;2023-05-21T14:26:46;16.00;;;9.70;;
68089;SDS011;54880;50.986;6.990;2023-05-21T14:29:12;12.97;;;8.97;;
68089;SDS011;54880;50.986;6.990;2023-05-21T14:31:37;11.97;;;9.07;;
68089;SDS011;54880;50.986;6.990;2023-05-21T14:34:02;15.73;;;9.80;;
68089;SDS011;54880;50.986;6.990;2023-05-21T14:36:28;15.25;;;10.52;;
68089;SDS011;54880;50.986;6.990;2023-05-21T14:38:53;14.53;;;10.07;;
68089;SDS011;54880;50.986;6.990;2023-05-21T14:41:22;12.27;;;9.63;;
68089;SDS011;54880;50.986;6.990;2023-05-21T14:43:47;13.35;;;9.90;;
68089;SDS011;54880;50.986;6.990;2023-05-21T14:46:13;14.53;;;9.90;;
68089;SDS011;54880;50.986;6.990;2023-05-21T14:48:38;14.00;;;10.10;;